createdAt,value
2023-02-07T00:02:24.000Z,12.52
2023-02-07T00:07:25.000Z,11.5
2023-02-07T00:12:25.000Z,12.32
2023-02-07T00:17:24.000Z,12.13
2023-02-07T00:22:24.000Z,12.21
2023-02-07T00:27:24.000Z,11.21
2023-02-07T00:32:24.000Z,11.03
2023-02-07T00:37:25.000Z,12.14
2023-02-07T00:42:24.000Z,13.01
2023-02-07T00:47:25.000Z,12.28
2023-02-07T00:52:24.000Z,11.61
2023-02-07T00:57:25.000Z,11.75
2023-02-07T01:02:24.000Z,11.27
2023-02-07T01:07:24.000Z,11.89
2023-02-07T01:12:25.000Z,11.31
2023-02-07T01:17:24.000Z,10.72
2023-02-07T01:22:24.000Z,10.3
2023-02-07T01:27:24.000Z,9.82
2023-02-07T01:32:24.000Z,10.06
2023-02-07T01:37:24.000Z,10.37
2023-02-07T01:42:25.000Z,10.39
2023-02-07T01:47:24.000Z,9.88
2023-02-07T01:52:24.000Z,9.83
2023-02-07T01:57:24.000Z,9.7
2023-02-07T02:02:24.000Z,9.69
2023-02-07T02:07:24.000Z,9.79
2023-02-07T02:12:24.000Z,9.74
2023-02-07T02:17:24.000Z,9.82
2023-02-07T02:22:25.000Z,9.77
2023-02-07T02:27:24.000Z,9.87
2023-02-07T02:32:25.000Z,9.29
2023-02-07T02:37:24.000Z,9.89
2023-02-07T02:42:25.000Z,9.93
2023-02-07T02:47:24.000Z,10.59
2023-02-07T02:52:25.000Z,10.78
2023-02-07T02:57:24.000Z,10.29
2023-02-07T03:02:25.000Z,10.42
2023-02-07T03:07:24.000Z,10.83
2023-02-07T03:17:24.000Z,11.01
2023-02-07T03:22:24.000Z,10.87
2023-02-07T03:27:24.000Z,10.89
2023-02-07T03:32:24.000Z,11.63
2023-02-07T03:37:25.000Z,13.06
2023-02-07T03:42:24.000Z,12.92
2023-02-07T03:47:25.000Z,13.15
2023-02-07T03:52:24.000Z,13.07
2023-02-07T03:57:25.000Z,13.22
2023-02-07T04:02:24.000Z,13.55
2023-02-07T04:07:24.000Z,13.96
2023-02-07T04:12:25.000Z,14.04
2023-02-07T04:17:24.000Z,13.97
2023-02-07T04:22:25.000Z,14.39
2023-02-07T04:27:24.000Z,15.16
2023-02-07T04:32:25.000Z,15.18
2023-02-07T04:37:24.000Z,15.31
2023-02-07T04:42:24.000Z,15.93
2023-02-07T04:47:25.000Z,16.72
2023-02-07T04:52:24.000Z,16.93
2023-02-07T04:57:25.000Z,17.53
2023-02-07T05:02:24.000Z,17.52
2023-02-07T05:07:25.000Z,18.01
2023-02-07T05:12:24.000Z,17.41
2023-02-07T05:17:24.000Z,17.31
2023-02-07T05:22:24.000Z,16.31
2023-02-07T05:27:25.000Z,14.56
2023-02-07T05:32:24.000Z,13.18
2023-02-07T05:37:25.000Z,12.77
2023-02-07T05:42:24.000Z,26.99
2023-02-07T05:47:25.000Z,13.6
2023-02-07T05:52:24.000Z,11.83
2023-02-07T06:02:24.000Z,12.16
2023-02-07T06:07:25.000Z,14.06
2023-02-07T06:12:24.000Z,16.36
2023-02-07T06:17:25.000Z,18.06
2023-02-07T06:22:24.000Z,16.21
2023-02-07T06:27:25.000Z,14.4
2023-02-07T06:32:24.000Z,13.07
2023-02-07T06:37:24.000Z,13.45
2023-02-07T06:42:24.000Z,12.23
2023-02-07T06:47:25.000Z,11.94
2023-02-07T06:52:24.000Z,12.61
2023-02-07T06:57:25.000Z,12.91
2023-02-07T07:02:24.000Z,13.17
2023-02-07T07:07:25.000Z,11.69
2023-02-07T07:12:24.000Z,10
2023-02-07T07:17:24.000Z,9.57
2023-02-07T07:22:25.000Z,8.8
2023-02-07T07:27:25.000Z,8.74
2023-02-07T07:32:25.000Z,8.88
2023-02-07T07:37:25.000Z,8.9
2023-02-07T07:42:24.000Z,9.07
2023-02-07T07:47:24.000Z,10.18
2023-02-07T07:52:25.000Z,10.56
2023-02-07T07:57:24.000Z,9.87
2023-02-07T08:02:25.000Z,9.46
2023-02-07T08:07:24.000Z,9.51
2023-02-07T08:12:25.000Z,9.69
2023-02-07T08:17:24.000Z,9.78
2023-02-07T08:22:25.000Z,9.69
2023-02-07T08:27:24.000Z,9.95
2023-02-07T08:32:25.000Z,9.97
2023-02-07T08:37:24.000Z,9.89
2023-02-07T08:42:25.000Z,10.01
2023-02-07T08:47:24.000Z,9.39
2023-02-07T08:52:25.000Z,8.32
2023-02-07T08:57:24.000Z,8.53
2023-02-07T09:02:25.000Z,9.07
2023-02-07T09:07:24.000Z,8.68
2023-02-07T09:12:24.000Z,7.77
2023-02-07T09:17:24.000Z,8.57
2023-02-07T09:22:24.000Z,9.52
2023-02-07T09:27:24.000Z,9.4
2023-02-07T09:32:24.000Z,8.17
2023-02-07T09:37:24.000Z,8.21
2023-02-07T09:42:25.000Z,8.88
2023-02-07T09:47:25.000Z,10.06
2023-02-07T09:52:25.000Z,10.64
2023-02-07T09:57:24.000Z,10.83
2023-02-07T10:02:25.000Z,12.05
2023-02-07T10:07:24.000Z,13.14
2023-02-07T10:12:24.000Z,13.42
2023-02-07T10:17:24.000Z,13.51
2023-02-07T10:22:24.000Z,13.25
2023-02-07T10:27:24.000Z,13.23
2023-02-07T10:32:24.000Z,13.59
2023-02-07T10:37:25.000Z,13.89
2023-02-07T10:42:25.000Z,13.59
2023-02-07T10:47:25.000Z,13.2
2023-02-07T10:52:25.000Z,12.92
2023-02-07T10:57:25.000Z,12.67
2023-02-07T11:02:24.000Z,12.3
2023-02-07T11:07:24.000Z,12.23
2023-02-07T11:12:25.000Z,11.59
2023-02-07T11:17:24.000Z,11.61
2023-02-07T11:22:24.000Z,12.32
2023-02-07T11:27:24.000Z,12.38
2023-02-07T11:32:24.000Z,11.7
2023-02-07T11:37:24.000Z,11.65
2023-02-07T11:42:25.000Z,12.01
2023-02-07T11:47:24.000Z,12.12
2023-02-07T11:52:24.000Z,12.21
2023-02-07T11:57:24.000Z,12
2023-02-07T12:02:25.000Z,12.48
2023-02-07T12:07:24.000Z,12.62
2023-02-07T12:12:24.000Z,12.61
2023-02-07T12:17:24.000Z,12.6
2023-02-07T12:22:25.000Z,12.78
2023-02-07T12:27:25.000Z,12.2
2023-02-07T12:32:24.000Z,12.09
2023-02-07T12:37:25.000Z,12.95
2023-02-07T12:42:25.000Z,13.43
2023-02-07T12:47:24.000Z,13.27
2023-02-07T12:52:24.000Z,13.57
2023-02-07T12:57:24.000Z,14.48
2023-02-07T13:02:24.000Z,15.1
2023-02-07T13:07:24.000Z,15.62
2023-02-07T13:12:25.000Z,15.72
2023-02-07T13:17:24.000Z,15.77
2023-02-07T13:22:25.000Z,16.42
2023-02-07T13:27:24.000Z,16.33
2023-02-07T13:32:25.000Z,16.18
2023-02-07T13:37:24.000Z,16.29
2023-02-07T13:42:24.000Z,16.41
2023-02-07T13:47:24.000Z,15.89
2023-02-07T13:52:25.000Z,15.32
2023-02-07T13:57:24.000Z,15.56
2023-02-07T14:02:25.000Z,15.44
2023-02-07T14:07:24.000Z,15.38
2023-02-07T14:12:25.000Z,15.89
2023-02-07T14:17:24.000Z,15.96
2023-02-07T14:22:24.000Z,15.8
2023-02-07T14:27:24.000Z,15.49
2023-02-07T14:32:25.000Z,15
2023-02-07T14:37:24.000Z,14.88
2023-02-07T14:42:25.000Z,15.05
2023-02-07T14:47:24.000Z,14.91
2023-02-07T14:52:25.000Z,15.07
2023-02-07T14:57:24.000Z,14.8
2023-02-07T15:02:24.000Z,14.82
2023-02-07T15:07:24.000Z,14.87
2023-02-07T15:12:24.000Z,14.7
2023-02-07T15:17:25.000Z,14.42
2023-02-07T15:22:24.000Z,14.93
2023-02-07T15:27:25.000Z,15.24
2023-02-07T15:32:24.000Z,14.69
2023-02-07T15:37:25.000Z,14.46
2023-02-07T15:42:24.000Z,14.48
2023-02-07T15:47:24.000Z,14.21
2023-02-07T15:52:25.000Z,14.82
2023-02-07T15:57:24.000Z,16.02
2023-02-07T16:02:24.000Z,14.95
2023-02-07T16:07:24.000Z,13.43
2023-02-07T16:12:24.000Z,13.14
2023-02-07T16:17:25.000Z,13.94
2023-02-07T16:22:24.000Z,13.76
2023-02-07T16:27:25.000Z,15.36
2023-02-07T16:32:25.000Z,13.65
2023-02-07T16:37:25.000Z,13.55
2023-02-07T16:42:24.000Z,14.15
2023-02-07T16:47:24.000Z,13.63
2023-02-07T16:52:25.000Z,14.14
2023-02-07T16:57:24.000Z,13.12
2023-02-07T17:02:25.000Z,12.96
2023-02-07T17:07:24.000Z,13.39
2023-02-07T17:12:25.000Z,13.94
2023-02-07T17:17:24.000Z,13.62
2023-02-07T17:22:24.000Z,13.5
2023-02-07T17:27:24.000Z,13.6
2023-02-07T17:32:25.000Z,13.27
2023-02-07T17:37:24.000Z,13.09
2023-02-07T17:42:24.000Z,13.4
2023-02-07T17:47:24.000Z,13.64
2023-02-07T17:52:25.000Z,13.57
2023-02-07T17:57:24.000Z,13.83
2023-02-07T18:02:24.000Z,13.47
2023-02-07T18:07:24.000Z,14.21
2023-02-07T18:12:24.000Z,15.17
2023-02-07T18:17:24.000Z,15.61
2023-02-07T18:22:25.000Z,13.97
2023-02-07T18:32:25.000Z,13.17
2023-02-07T18:37:24.000Z,12.85
2023-02-07T18:42:25.000Z,12.77
2023-02-07T18:47:24.000Z,12.18
2023-02-07T18:52:25.000Z,12.12
2023-02-07T18:57:24.000Z,11.94
2023-02-07T19:02:25.000Z,13.14
2023-02-07T19:07:24.000Z,12.8
2023-02-07T19:12:24.000Z,12.87
2023-02-07T19:17:25.000Z,13.17
2023-02-07T19:22:24.000Z,12.44
2023-02-07T19:27:25.000Z,11.5
2023-02-07T19:32:24.000Z,12.48
2023-02-07T19:37:25.000Z,12.28
2023-02-07T19:42:24.000Z,11.58
2023-02-07T19:47:24.000Z,10.91
2023-02-07T19:52:24.000Z,11.05
2023-02-07T19:57:24.000Z,11.13
2023-02-07T20:02:25.000Z,11.44
2023-02-07T20:07:24.000Z,11.26
2023-02-07T20:12:24.000Z,11.05
2023-02-07T20:17:24.000Z,11.1
2023-02-07T20:22:24.000Z,10.36
2023-02-07T20:27:24.000Z,10.11
2023-02-07T20:32:25.000Z,10.11
2023-02-07T20:37:24.000Z,10.09
2023-02-07T20:42:24.000Z,9.87
2023-02-07T20:47:25.000Z,9.78
2023-02-07T20:52:24.000Z,9.56
2023-02-07T20:57:24.000Z,9.64
2023-02-07T21:02:25.000Z,9.39
2023-02-07T21:07:24.000Z,9.58
2023-02-07T21:12:24.000Z,8.99
2023-02-07T21:17:25.000Z,9.02
2023-02-07T21:22:24.000Z,9.37
2023-02-07T21:27:24.000Z,10.37
2023-02-07T21:32:25.000Z,9.66
2023-02-07T21:37:24.000Z,9.65
2023-02-07T21:42:25.000Z,9.83
2023-02-07T21:47:24.000Z,9.65
2023-02-07T21:52:25.000Z,9.61
2023-02-07T21:57:24.000Z,10.06
2023-02-07T22:02:24.000Z,9.54
2023-02-07T22:07:25.000Z,9.48
2023-02-07T22:12:24.000Z,9.61
2023-02-07T22:17:25.000Z,9.38
2023-02-07T22:22:24.000Z,9.11
2023-02-07T22:27:24.000Z,8.96
2023-02-07T22:32:24.000Z,8.98
2023-02-07T22:37:25.000Z,8.72
2023-02-07T22:42:24.000Z,8.42
2023-02-07T22:47:24.000Z,8.77
2023-02-07T22:52:24.000Z,8.78
2023-02-07T22:57:25.000Z,9.34
2023-02-07T23:02:24.000Z,9
2023-02-07T23:07:24.000Z,9.02
2023-02-07T23:12:25.000Z,9.1
2023-02-07T23:17:24.000Z,9.07
2023-02-07T23:22:25.000Z,8.57
2023-02-07T23:27:24.000Z,8.84
2023-02-07T23:32:25.000Z,8.59
2023-02-07T23:37:24.000Z,8.69
2023-02-07T23:42:25.000Z,8.81
2023-02-07T23:47:24.000Z,8.5
2023-02-07T23:52:24.000Z,8.52
2023-02-07T23:57:24.000Z,8.61
